Woonsocket Falls Local Protection and Pump Stations

Woonsocket Falls Local Protection And Pump Stations
 Drainage Area: 369 sq. miles 
 Channel Capacity: cfs 
 Storage at Spillway Crest: in / ac-ft  
 Normal Pool: 0 Feet 
 Gate Settings for January 29, 2023 11:00 am Gate 1 Gate 2 Gate 3 Gate 4 Gate 5 Gate 6 Gate 7 Gate 8
  0.0 0.0 0.0 0.0        
Date Time (EST) WFD Stage
(ft)
Social Inlet
(ft)
Hamlet Inlet
(ft)
Precip
(in)
Precip
1-hr (in)
Precip
3-hr (in)
Blackstone R.
(ft)
Jan-31 02:30 pm 1.75 4.16 1.55 5.95 0.00 0.00 4.23
Jan-31 01:30 pm 1.77 4.17 1.55 5.95 0.00 0.00 4.24
Jan-31 12:30 pm 1.79 4.20 1.55 5.95 0.00 0.00 4.28
Jan-31 11:30 am 1.87 4.26   5.95 0.00 0.01 4.32
Jan-31 10:30 am 1.84 4.23 1.56 5.95 0.00 0.01 4.30
Jan-31 09:30 am 1.76 4.20 1.56 5.95 0.01 0.02 4.26
Jan-31 08:30 am 1.81 4.21 1.56 5.94 0.00 0.01 4.28
Jan-31 07:30 am 1.80 4.21 1.55 5.94 0.01 0.01 4.28
Jan-31 06:30 am 1.83 4.22 1.55 5.93 0.00 0.00 4.29
Jan-31 05:30 am 1.81 4.23 1.56 5.93 0.00 0.00 4.30
Jan-31 04:30 am 1.81 4.22 1.56 5.93 0.00 0.00 4.30
Jan-31 03:30 am 1.82 4.24 1.55 5.93 0.00 0.00 4.31
Jan-31 02:30 am 1.83 4.24 1.55 5.93 0.00 0.00 4.31
Jan-31 01:30 am 1.86 4.25 1.55 5.93 0.00 0.00 4.32
Jan-31 12:30 am 1.86 4.26 1.56 5.93 0.00 0.00 4.33
Jan-30 11:30 pm 1.87 4.26 1.56 5.93 0.00 0.00 4.33
Jan-30 10:30 pm 1.85 4.26 1.56 5.93 0.00 0.00 4.33
Jan-30 09:30 pm 1.84 4.27 1.56 5.93 0.00 0.00 4.33
Jan-30 08:30 pm 1.85 4.26 1.56 5.93 0.00 0.00 4.33
Jan-30 07:30 pm 1.86 4.28 1.56 5.93 0.00 0.00 4.35
Jan-30 06:30 pm 1.83 4.28 1.56 5.93 0.00 0.00 4.35
Jan-30 05:30 pm 1.89 4.33 1.56 5.93 0.00 0.00 4.37
Jan-30 04:30 pm 1.88 4.32 1.56 5.93 0.00 -- 4.39
Jan-30 03:30 pm 1.92 4.35 1.56 5.93 0.00 -- 4.41
Jan-30 02:30 pm 1.91 4.38 1.56 5.93 -- -- 4.44
Maximum 24 Hour Drawdown Rate Not Available - Missing Pool Data
Report Generated January 31, 2023 03:04 pm